Norwegian Spirit — C6TQ6 — position and weather

sailwx.info

Track history (hours):
 
Tides and Currents Weather Stations Pressure Air Temp Water Temp Dewpoint Dewpoint Depression Visibility Wind Speed Wind Dir Waves Ship Positions

Norwegian Spirit

Operator: Norwegian Cruise Line

Last reported at 2014-Aug-31 16:32 UTC. Time now 2014-Sep-01 23:50 UTC.
Position N 37°37' E 023°42'.

Type: Ship. MMSI: 311746000.

Date/timePositionNaut miles runAvg speedWind from/ knotsBaromVisibWave heightAir tempDewpointWater temp
2014-Aug-31 16:32N 37°37' E 023°42'1919.6
2014-Aug-31 15:33N 37°56' E 023°36'2 1.5
2014-Aug-31 14:33N 37°56' E 023°38'0 0.0
2014-Aug-31 13:33N 37°56' E 023°38'0 0.0
2014-Aug-31 12:32N 37°56' E 023°38'0 0.0
2014-Aug-31 11:32N 37°56' E 023°38'0 0.0
2014-Aug-31 10:31N 37°56' E 023°38'0 0.0
2014-Aug-31 09:31N 37°56' E 023°38'0 0.0
2014-Aug-31 08:34N 37°56' E 023°38'0 0.0
2014-Aug-31 07:33N 37°56' E 023°38'0 0.0
2014-Aug-31 06:33N 37°56' E 023°38'0 0.0
2014-Aug-31 05:32N 37°56' E 023°38'0 0.0
2014-Aug-31 04:32N 37°56' E 023°38'2 1.9
2014-Aug-31 03:33N 37°55' E 023°37'1414.3
2014-Aug-31 02:33N 37°42' E 023°44'2020.3
2014-Aug-31 01:33N 37°28' E 024°03'3919.4
2014-Aug-30 23:33N 37°18' E 024°50'2221.2
2014-Aug-30 22:31N 37°20' E 025°18'1919.6
2014-Aug-30 21:33N 37°27' E 025°40'136 6.4
2014-Aug-30 00:26N 39°43' E 025°42'16718.6
2014-Aug-29 15:29N 40°58' E 028°57'4 0.4
2014-Aug-29 05:33N 41°02' E 028°59'9 8.6
2014-Aug-29 04:33N 40°54' E 028°55'18717.0
2014-Aug-28 17:32N 39°12' E 025°29'2720.5
2014-Aug-28 16:12N 38°46' E 025°18'1320.3
2014-Aug-28 15:33N 38°34' E 025°14'2820.4
2014-Aug-28 14:12N 38°06' E 025°12'1319.9
2014-Aug-28 13:33N 37°53' E 025°14'2019.9
2014-Aug-28 12:33N 37°34' E 025°17'6 5.8
2014-Aug-28 11:32N 37°28' E 025°19'0 0.0
2014-Aug-28 10:31N 37°28' E 025°19'0 0.0
2014-Aug-28 09:31N 37°28' E 025°19'0 0.0
2014-Aug-28 08:33N 37°28' E 025°19'0 0.0
2014-Aug-28 07:33N 37°28' E 025°19'0 0.0
2014-Aug-28 06:33N 37°28' E 025°19'0 0.0
2014-Aug-28 05:32N 37°28' E 025°19'0 0.0
2014-Aug-28 04:32N 37°28' E 025°19'0 0.0
2014-Aug-28 03:33N 37°28' E 025°19'8 7.7
2014-Aug-28 02:33N 37°27' E 025°10'1817.5
2014-Aug-28 01:33N 37°16' E 024°52'1717.4
2014-Aug-28 00:33N 37°05' E 024°35'1818.0
2014-Aug-27 23:34N 36°55' E 024°16'2121.1
2014-Aug-27 22:33N 36°43' E 023°55'2121.0
2014-Aug-27 21:33N 36°32' E 023°33'49218.6
2014-Aug-26 19:10N 40°20' E 014°16'246 5.3
2014-Aug-24 20:18N 42°52' E 009°58'1114.6
2014-Aug-24 19:34N 43°02' E 010°02'1514.9
2014-Aug-24 18:33N 43°17' E 010°07'1514.8
2014-Aug-24 17:34N 43°31' E 010°13'4 4.0
2014-Aug-24 16:32N 43°33' E 010°18'0 0.0
2014-Aug-24 15:31N 43°33' E 010°18'0 0.0
2014-Aug-24 14:31N 43°33' E 010°18'0 0.0
2014-Aug-24 13:31N 43°33' E 010°18'0 0.0
2014-Aug-24 12:33N 43°33' E 010°18'0 0.0
2014-Aug-24 11:32N 43°33' E 010°18'0 0.0
2014-Aug-24 10:32N 43°33' E 010°18'0 0.0
2014-Aug-24 09:32N 43°33' E 010°18'0 0.0
2014-Aug-24 08:31N 43°33' E 010°18'0 0.0
2014-Aug-24 07:31N 43°33' E 010°18'0 0.0
2014-Aug-24 06:33N 43°33' E 010°18'0 0.3
2014-Aug-24 05:33N 43°33' E 010°17'8 7.8
2014-Aug-24 04:33N 43°28' E 010°10'1312.8
2014-Aug-24 03:33N 43°19' E 009°57'1414.1
2014-Aug-24 02:33N 43°17' E 009°38'1514.5
2014-Aug-24 01:33N 43°14' E 009°18'1514.6
2014-Aug-24 00:33N 43°11' E 008°58'1514.7
2014-Aug-23 23:33N 43°10' E 008°38'1514.6
2014-Aug-23 22:33N 43°08' E 008°19'1514.6
2014-Aug-23 21:33N 43°05' E 007°59'1514.8
2014-Aug-23 20:33N 43°03' E 007°39'1120.0
2014-Aug-23 20:00N 43°00' E 007°24'4 9.8 260 / 201015.0 23.0
2014-Aug-23 19:33N 43°01' E 007°18'82 5.1
2014-Aug-23 03:33N 42°45' E 005°29'1818.2
2014-Aug-23 02:33N 42°35' E 005°08'1818.2
2014-Aug-23 01:33N 42°25' E 004°47'2019.9
2014-Aug-23 00:33N 42°14' E 004°25'2121.2
2014-Aug-22 23:33N 42°03' E 004°00'2120.6
2014-Aug-22 22:33N 41°51' E 003°37'2020.4
2014-Aug-22 21:33N 41°40' E 003°14'4220.8
2014-Aug-22 19:33N 41°21' E 002°25'11 1.0
2014-Aug-22 08:16N 41°22' E 002°11'0 0.0
2014-Aug-22 06:33N 41°22' E 002°11'3 0.6
2014-Aug-22 02:09N 41°19' E 002°10'711.7
2014-Aug-22 01:33N 41°17' E 002°19'1818.2
2014-Aug-22 00:33N 41°26' E 002°40'1717.3
2014-Aug-21 23:33N 41°35' E 002°60'1919.3
2014-Aug-21 22:33N 41°45' E 003°22'2121.6
2014-Aug-21 21:33N 41°56' E 003°46'4221.2
2014-Aug-21 19:33N 42°20' E 004°34'1120.3
2014-Aug-21 19:00N 42°24' E 004°48'1023.5 250 / 161015.0 21.0
2014-Aug-21 18:33N 42°31' E 004°58'2120.8
2014-Aug-21 17:33N 42°43' E 005°21'2121.6
2014-Aug-21 16:33N 42°55' E 005°45'  
Track history (hours):
 
Tides and Currents Weather Stations Pressure Air Temp Water Temp Dewpoint Dewpoint Depression Visibility Wind Speed Wind Dir Waves Ship Positions

Norwegian Spirit

Operator: Norwegian Cruise Line

Last reported at 2014-Aug-31 16:32 UTC. Time now 2014-Sep-01 23:50 UTC.
Position N 37°37' E 023°42'.

Type: Ship. MMSI: 311746000.

Date/timePositionNaut miles runAvg speedWind from/ knotsBaromVisibWave heightAir tempDewpointWater temp
2014-Aug-31 16:32N 37°37' E 023°42'1919.6
2014-Aug-31 15:33N 37°56' E 023°36'2 1.5
2014-Aug-31 14:33N 37°56' E 023°38'0 0.0
2014-Aug-31 13:33N 37°56' E 023°38'0 0.0
2014-Aug-31 12:32N 37°56' E 023°38'0 0.0
2014-Aug-31 11:32N 37°56' E 023°38'0 0.0
2014-Aug-31 10:31N 37°56' E 023°38'0 0.0
2014-Aug-31 09:31N 37°56' E 023°38'0 0.0
2014-Aug-31 08:34N 37°56' E 023°38'0 0.0
2014-Aug-31 07:33N 37°56' E 023°38'0 0.0
2014-Aug-31 06:33N 37°56' E 023°38'0 0.0
2014-Aug-31 05:32N 37°56' E 023°38'0 0.0
2014-Aug-31 04:32N 37°56' E 023°38'2 1.9
2014-Aug-31 03:33N 37°55' E 023°37'1414.3
2014-Aug-31 02:33N 37°42' E 023°44'2020.3
2014-Aug-31 01:33N 37°28' E 024°03'3919.4
2014-Aug-30 23:33N 37°18' E 024°50'2221.2
2014-Aug-30 22:31N 37°20' E 025°18'1919.6
2014-Aug-30 21:33N 37°27' E 025°40'136 6.4
2014-Aug-30 00:26N 39°43' E 025°42'16718.6
2014-Aug-29 15:29N 40°58' E 028°57'4 0.4
2014-Aug-29 05:33N 41°02' E 028°59'9 8.6
2014-Aug-29 04:33N 40°54' E 028°55'18717.0
2014-Aug-28 17:32N 39°12' E 025°29'2720.5
2014-Aug-28 16:12N 38°46' E 025°18'1320.3
2014-Aug-28 15:33N 38°34' E 025°14'2820.4
2014-Aug-28 14:12N 38°06' E 025°12'1319.9
2014-Aug-28 13:33N 37°53' E 025°14'2019.9
2014-Aug-28 12:33N 37°34' E 025°17'6 5.8
2014-Aug-28 11:32N 37°28' E 025°19'0 0.0
2014-Aug-28 10:31N 37°28' E 025°19'0 0.0
2014-Aug-28 09:31N 37°28' E 025°19'0 0.0
2014-Aug-28 08:33N 37°28' E 025°19'0 0.0
2014-Aug-28 07:33N 37°28' E 025°19'0 0.0
2014-Aug-28 06:33N 37°28' E 025°19'0 0.0
2014-Aug-28 05:32N 37°28' E 025°19'0 0.0
2014-Aug-28 04:32N 37°28' E 025°19'0 0.0
2014-Aug-28 03:33N 37°28' E 025°19'8 7.7
2014-Aug-28 02:33N 37°27' E 025°10'1817.5
2014-Aug-28 01:33N 37°16' E 024°52'1717.4
2014-Aug-28 00:33N 37°05' E 024°35'1818.0
2014-Aug-27 23:34N 36°55' E 024°16'2121.1
2014-Aug-27 22:33N 36°43' E 023°55'2121.0
2014-Aug-27 21:33N 36°32' E 023°33'49218.6
2014-Aug-26 19:10N 40°20' E 014°16'246 5.3
2014-Aug-24 20:18N 42°52' E 009°58'1114.6
2014-Aug-24 19:34N 43°02' E 010°02'1514.9
2014-Aug-24 18:33N 43°17' E 010°07'1514.8
2014-Aug-24 17:34N 43°31' E 010°13'4 4.0
2014-Aug-24 16:32N 43°33' E 010°18'0 0.0
2014-Aug-24 15:31N 43°33' E 010°18'0 0.0
2014-Aug-24 14:31N 43°33' E 010°18'0 0.0
2014-Aug-24 13:31N 43°33' E 010°18'0 0.0
2014-Aug-24 12:33N 43°33' E 010°18'0 0.0
2014-Aug-24 11:32N 43°33' E 010°18'0 0.0
2014-Aug-24 10:32N 43°33' E 010°18'0 0.0
2014-Aug-24 09:32N 43°33' E 010°18'0 0.0
2014-Aug-24 08:31N 43°33' E 010°18'0 0.0
2014-Aug-24 07:31N 43°33' E 010°18'0 0.0
2014-Aug-24 06:33N 43°33' E 010°18'0 0.3
2014-Aug-24 05:33N 43°33' E 010°17'8 7.8
2014-Aug-24 04:33N 43°28' E 010°10'1312.8
2014-Aug-24 03:33N 43°19' E 009°57'1414.1
2014-Aug-24 02:33N 43°17' E 009°38'1514.5
2014-Aug-24 01:33N 43°14' E 009°18'1514.6
2014-Aug-24 00:33N 43°11' E 008°58'1514.7
2014-Aug-23 23:33N 43°10' E 008°38'1514.6
2014-Aug-23 22:33N 43°08' E 008°19'1514.6
2014-Aug-23 21:33N 43°05' E 007°59'1514.8
2014-Aug-23 20:33N 43°03' E 007°39'1120.0
2014-Aug-23 20:00N 43°00' E 007°24'4 9.8 260 / 201015.0 23.0
2014-Aug-23 19:33N 43°01' E 007°18'82 5.1
2014-Aug-23 03:33N 42°45' E 005°29'1818.2
2014-Aug-23 02:33N 42°35' E 005°08'1818.2
2014-Aug-23 01:33N 42°25' E 004°47'2019.9
2014-Aug-23 00:33N 42°14' E 004°25'2121.2
2014-Aug-22 23:33N 42°03' E 004°00'2120.6
2014-Aug-22 22:33N 41°51' E 003°37'2020.4
2014-Aug-22 21:33N 41°40' E 003°14'4220.8
2014-Aug-22 19:33N 41°21' E 002°25'11 1.0
2014-Aug-22 08:16N 41°22' E 002°11'0 0.0
2014-Aug-22 06:33N 41°22' E 002°11'3 0.6
2014-Aug-22 02:09N 41°19' E 002°10'711.7
2014-Aug-22 01:33N 41°17' E 002°19'1818.2
2014-Aug-22 00:33N 41°26' E 002°40'1717.3
2014-Aug-21 23:33N 41°35' E 002°60'1919.3
2014-Aug-21 22:33N 41°45' E 003°22'2121.6
2014-Aug-21 21:33N 41°56' E 003°46'4221.2
2014-Aug-21 19:33N 42°20' E 004°34'1120.3
2014-Aug-21 19:00N 42°24' E 004°48'1023.5 250 / 161015.0 21.0
2014-Aug-21 18:33N 42°31' E 004°58'2120.8
2014-Aug-21 17:33N 42°43' E 005°21'2121.6
2014-Aug-21 16:33N 42°55' E 005°45'  

Dump ship's entire track history